EWG5LK EKCH-EDDL
Flight info
| Callsign | EWG5LK |
|---|---|
| Flight time | 1h 3m |
| Altitude | 38000 |
| Route | NEXEN T503 MICOS DCT NIE DCT DENOL/N0377F260 T851 HALME HALME1A |
| Aircraft | A20N/M-SDE2E3FGIJ1LORWXYZ/HB1 |
Departure
| Time | 2026-05-04 18:05 |
|---|---|
| Airport | Copenhagen Kastrup Airport (EKCH) |
Arrival
| Time | 2026-05-04 19:09 |
|---|---|
| Airport | Düsseldorf Airport (EDDL) |
| Time | Latitude | Longitude | Altitude | Speed | Heading |
|---|---|---|---|---|---|
| 2026-05-04 17:08 | 55.62651 | 12.64560 | 20 ft | 0 kts | 301° |
| 2026-05-04 17:49 | 55.62650 | 12.64563 | 20 ft | 1 kts | 301° |
| 2026-05-04 17:49 | 55.62647 | 12.64571 | 20 ft | 2 kts | 304° |
| 2026-05-04 17:50 | 55.62641 | 12.64590 | 21 ft | 2 kts | 294° |
| 2026-05-04 17:50 | 55.62636 | 12.64610 | 22 ft | 2 kts | 286° |
| 2026-05-04 17:50 | 55.62633 | 12.64630 | 23 ft | 2 kts | 275° |
| 2026-05-04 17:50 | 55.62633 | 12.64652 | 23 ft | 2 kts | 248° |
| 2026-05-04 17:51 | 55.62637 | 12.64666 | 22 ft | 1 kts | 219° |
| 2026-05-04 17:51 | 55.62637 | 12.64668 | 22 ft | 0 kts | 206° |
| 2026-05-04 17:51 | 55.62635 | 12.64666 | 22 ft | 0 kts | 201° |
| 2026-05-04 17:52 | 55.62631 | 12.64664 | 23 ft | 1 kts | 200° |
| 2026-05-04 17:52 | 55.62625 | 12.64661 | 21 ft | 0 kts | 195° |
| 2026-05-04 17:57 | 55.62611 | 12.64655 | 19 ft | 5 kts | 192° |
| 2026-05-04 17:57 | 55.62554 | 12.64648 | 19 ft | 10 kts | 178° |
| 2026-05-04 17:57 | 55.62485 | 12.64660 | 21 ft | 9 kts | 170° |
| 2026-05-04 17:58 | 55.62418 | 12.64677 | 23 ft | 11 kts | 175° |
| 2026-05-04 17:58 | 55.62331 | 12.64662 | 20 ft | 14 kts | 207° |
| 2026-05-04 17:58 | 55.62294 | 12.64580 | 18 ft | 0 kts | 243° |
| 2026-05-04 18:00 | 55.62294 | 12.64579 | 18 ft | 1 kts | 243° |
| 2026-05-04 18:00 | 55.62284 | 12.64545 | 18 ft | 6 kts | 243° |
| 2026-05-04 18:00 | 55.62259 | 12.64457 | 18 ft | 10 kts | 244° |
| 2026-05-04 18:01 | 55.62201 | 12.64351 | 15 ft | 15 kts | 209° |
| 2026-05-04 18:01 | 55.62105 | 12.64267 | 19 ft | 15 kts | 204° |
| 2026-05-04 18:01 | 55.62006 | 12.64186 | 20 ft | 16 kts | 206° |
| 2026-05-04 18:02 | 55.61832 | 12.64017 | 29 ft | 13 kts | 223° |
| 2026-05-04 18:02 | 55.61750 | 12.63942 | 27 ft | 13 kts | 186° |
| 2026-05-04 18:02 | 55.61677 | 12.63943 | 26 ft | 8 kts | 176° |
| 2026-05-04 18:02 | 55.61668 | 12.63944 | 30 ft | 0 kts | 176° |
| 2026-05-04 18:03 | 55.61663 | 12.63944 | 31 ft | 3 kts | 175° |
| 2026-05-04 18:04 | 55.61610 | 12.63952 | 26 ft | 12 kts | 175° |
| 2026-05-04 18:04 | 55.61535 | 12.63926 | 26 ft | 6 kts | 219° |
| 2026-05-04 18:04 | 55.61515 | 12.63897 | 24 ft | 11 kts | 220° |
| 2026-05-04 18:05 | 55.61279 | 12.63531 | 27 ft | 81 kts | 221° |
| 2026-05-04 18:05 | 55.60684 | 12.62620 | 28 ft | 138 kts | 221° |
| 2026-05-04 18:05 | 55.59882 | 12.61412 | 289 ft | 158 kts | 220° |
| 2026-05-04 18:05 | 55.59048 | 12.60160 | 970 ft | 158 kts | 223° |
| 2026-05-04 18:06 | 55.57331 | 12.57631 | 2265 ft | 170 kts | 224° |
| 2026-05-04 18:06 | 55.56393 | 12.56171 | 2698 ft | 190 kts | 223° |
| 2026-05-04 18:06 | 55.55290 | 12.54666 | 3212 ft | 211 kts | 219° |
| 2026-05-04 18:07 | 55.54011 | 12.53093 | 3670 ft | 236 kts | 217° |
| 2026-05-04 18:07 | 55.52598 | 12.51403 | 4301 ft | 254 kts | 217° |
| 2026-05-04 18:07 | 55.51120 | 12.49636 | 5246 ft | 258 kts | 217° |
| 2026-05-04 18:07 | 55.49655 | 12.47872 | 6250 ft | 260 kts | 218° |
| 2026-05-04 18:08 | 55.48159 | 12.46057 | 7189 ft | 263 kts | 218° |
| 2026-05-04 18:08 | 55.46645 | 12.44211 | 8139 ft | 266 kts | 218° |
| 2026-05-04 18:08 | 55.45117 | 12.42345 | 9093 ft | 269 kts | 218° |
| 2026-05-04 18:08 | 55.43565 | 12.40449 | 9999 ft | 273 kts | 218° |
| 2026-05-04 18:09 | 55.40247 | 12.36389 | 10882 ft | 313 kts | 218° |
| 2026-05-04 18:09 | 55.36577 | 12.31931 | 12310 ft | 326 kts | 218° |
| 2026-05-04 18:10 | 55.34700 | 12.29661 | 13150 ft | 330 kts | 218° |
| 2026-05-04 18:10 | 55.32805 | 12.27367 | 13966 ft | 333 kts | 218° |
| 2026-05-04 18:10 | 55.30890 | 12.25051 | 14678 ft | 336 kts | 218° |
| 2026-05-04 18:10 | 55.28951 | 12.22706 | 15396 ft | 340 kts | 218° |
| 2026-05-04 18:11 | 55.26994 | 12.20341 | 16107 ft | 343 kts | 218° |
| 2026-05-04 18:11 | 55.25018 | 12.17956 | 16810 ft | 347 kts | 218° |
| 2026-05-04 18:11 | 55.23013 | 12.15539 | 17497 ft | 351 kts | 218° |
| 2026-05-04 18:11 | 55.20992 | 12.13106 | 18188 ft | 355 kts | 218° |
| 2026-05-04 18:12 | 55.18958 | 12.10632 | 18795 ft | 358 kts | 219° |
| 2026-05-04 18:12 | 55.16966 | 12.08091 | 19395 ft | 360 kts | 220° |
| 2026-05-04 18:12 | 55.14930 | 12.05450 | 19753 ft | 371 kts | 220° |
| 2026-05-04 18:12 | 55.12832 | 12.02733 | 20186 ft | 378 kts | 220° |
| 2026-05-04 18:13 | 55.10710 | 12.00006 | 20804 ft | 380 kts | 220° |
| 2026-05-04 18:13 | 55.08567 | 11.97268 | 21384 ft | 383 kts | 219° |
| 2026-05-04 18:13 | 55.04227 | 11.91744 | 22539 ft | 389 kts | 220° |
| 2026-05-04 18:14 | 55.02034 | 11.88959 | 23122 ft | 391 kts | 220° |
| 2026-05-04 18:14 | 54.99825 | 11.86159 | 23667 ft | 394 kts | 220° |
| 2026-05-04 18:14 | 54.97607 | 11.83352 | 24192 ft | 395 kts | 220° |
| 2026-05-04 18:15 | 54.93158 | 11.77733 | 25229 ft | 396 kts | 220° |
| 2026-05-04 18:15 | 54.88723 | 11.72144 | 26222 ft | 397 kts | 220° |
| 2026-05-04 18:15 | 54.86487 | 11.69332 | 26720 ft | 397 kts | 221° |
| 2026-05-04 18:16 | 54.84241 | 11.66512 | 27190 ft | 399 kts | 221° |
| 2026-05-04 18:16 | 54.81990 | 11.63689 | 27645 ft | 400 kts | 221° |
| 2026-05-04 18:16 | 54.79736 | 11.60864 | 28096 ft | 400 kts | 221° |
| 2026-05-04 18:17 | 54.75207 | 11.55206 | 28924 ft | 402 kts | 221° |
| 2026-05-04 18:17 | 54.72937 | 11.52375 | 29302 ft | 403 kts | 221° |
| 2026-05-04 18:17 | 54.68401 | 11.46730 | 30070 ft | 405 kts | 221° |
| 2026-05-04 18:18 | 54.66107 | 11.43881 | 30353 ft | 407 kts | 221° |
| 2026-05-04 18:18 | 54.63794 | 11.41011 | 30579 ft | 411 kts | 221° |
| 2026-05-04 18:18 | 54.61467 | 11.38129 | 30827 ft | 413 kts | 221° |
| 2026-05-04 18:18 | 54.59123 | 11.35230 | 31039 ft | 416 kts | 221° |
| 2026-05-04 18:19 | 54.54388 | 11.29394 | 31582 ft | 417 kts | 220° |
| 2026-05-04 18:19 | 54.52025 | 11.26513 | 31944 ft | 417 kts | 220° |
| 2026-05-04 18:19 | 54.49652 | 11.23628 | 32244 ft | 418 kts | 220° |
| 2026-05-04 18:20 | 54.47278 | 11.20746 | 32543 ft | 418 kts | 220° |
| 2026-05-04 18:20 | 54.44930 | 11.17898 | 32827 ft | 419 kts | 220° |
| 2026-05-04 18:20 | 54.42551 | 11.15015 | 33118 ft | 420 kts | 220° |
| 2026-05-04 18:20 | 54.40159 | 11.12118 | 33402 ft | 420 kts | 220° |
| 2026-05-04 18:21 | 54.37771 | 11.09233 | 33689 ft | 421 kts | 220° |
| 2026-05-04 18:21 | 54.35381 | 11.06348 | 33961 ft | 421 kts | 220° |
| 2026-05-04 18:21 | 54.32982 | 11.03457 | 34191 ft | 422 kts | 220° |
| 2026-05-04 18:21 | 54.30570 | 11.00584 | 34406 ft | 423 kts | 218° |
| 2026-05-04 18:22 | 54.28041 | 10.97953 | 34612 ft | 426 kts | 215° |
| 2026-05-04 18:22 | 54.25492 | 10.95376 | 34826 ft | 426 kts | 215° |
| 2026-05-04 18:22 | 54.22973 | 10.92828 | 35088 ft | 425 kts | 215° |
| 2026-05-04 18:22 | 54.20434 | 10.90258 | 35374 ft | 425 kts | 215° |
| 2026-05-04 18:23 | 54.15320 | 10.85079 | 35645 ft | 429 kts | 215° |
| 2026-05-04 18:23 | 54.12748 | 10.82482 | 35836 ft | 430 kts | 215° |
| 2026-05-04 18:23 | 54.10176 | 10.79891 | 36023 ft | 430 kts | 214° |
| 2026-05-04 18:24 | 54.07626 | 10.77325 | 36213 ft | 430 kts | 214° |
| 2026-05-04 18:24 | 54.05016 | 10.74702 | 36385 ft | 431 kts | 214° |
| 2026-05-04 18:24 | 54.02468 | 10.72147 | 36548 ft | 432 kts | 214° |
| 2026-05-04 18:24 | 53.99878 | 10.69552 | 36740 ft | 432 kts | 214° |
| 2026-05-04 18:25 | 53.97286 | 10.66959 | 36902 ft | 433 kts | 214° |
| 2026-05-04 18:25 | 53.94692 | 10.64368 | 37075 ft | 433 kts | 214° |
| 2026-05-04 18:25 | 53.89469 | 10.59161 | 37203 ft | 438 kts | 214° |
| 2026-05-04 18:26 | 53.84201 | 10.53927 | 37399 ft | 439 kts | 213° |
| 2026-05-04 18:26 | 53.81557 | 10.51306 | 37511 ft | 440 kts | 213° |
| 2026-05-04 18:26 | 53.78953 | 10.48729 | 37627 ft | 440 kts | 213° |
| 2026-05-04 18:27 | 53.76308 | 10.46115 | 37738 ft | 440 kts | 213° |
| 2026-05-04 18:27 | 53.73664 | 10.43504 | 37831 ft | 441 kts | 213° |
| 2026-05-04 18:27 | 53.68359 | 10.38280 | 37967 ft | 442 kts | 213° |
| 2026-05-04 18:28 | 53.63055 | 10.33073 | 37966 ft | 441 kts | 213° |
| 2026-05-04 18:28 | 53.57752 | 10.27881 | 37958 ft | 441 kts | 213° |
| 2026-05-04 18:29 | 53.55110 | 10.25301 | 37750 ft | 437 kts | 213° |
| 2026-05-04 18:29 | 53.52534 | 10.22791 | 37430 ft | 431 kts | 213° |
| 2026-05-04 18:29 | 53.49951 | 10.20277 | 36893 ft | 427 kts | 213° |
| 2026-05-04 18:29 | 53.47384 | 10.17782 | 36294 ft | 424 kts | 214° |
| 2026-05-04 18:30 | 53.42261 | 10.12803 | 35976 ft | 431 kts | 214° |
| 2026-05-04 18:30 | 53.39653 | 10.10272 | 35979 ft | 434 kts | 214° |
| 2026-05-04 18:31 | 53.34432 | 10.05228 | 35972 ft | 432 kts | 213° |
| 2026-05-04 18:31 | 53.29226 | 10.00213 | 35971 ft | 432 kts | 213° |
| 2026-05-04 18:32 | 53.24019 | 9.95209 | 35967 ft | 431 kts | 213° |
| 2026-05-04 18:32 | 53.18860 | 9.90264 | 35959 ft | 430 kts | 213° |
| 2026-05-04 18:33 | 53.13668 | 9.85302 | 35968 ft | 430 kts | 213° |
| 2026-05-04 18:33 | 53.08496 | 9.80374 | 35962 ft | 425 kts | 213° |
| 2026-05-04 18:34 | 53.03424 | 9.75555 | 35956 ft | 423 kts | 213° |
| 2026-05-04 18:34 | 53.00869 | 9.73130 | 35802 ft | 423 kts | 213° |
| 2026-05-04 18:34 | 52.98320 | 9.70717 | 35548 ft | 421 kts | 213° |
| 2026-05-04 18:34 | 52.95782 | 9.68318 | 35295 ft | 419 kts | 213° |
| 2026-05-04 18:35 | 52.93254 | 9.65931 | 35040 ft | 418 kts | 213° |
| 2026-05-04 18:35 | 52.90729 | 9.63549 | 34811 ft | 417 kts | 213° |
| 2026-05-04 18:35 | 52.88210 | 9.61177 | 34557 ft | 416 kts | 213° |
| 2026-05-04 18:35 | 52.85702 | 9.58817 | 34315 ft | 415 kts | 213° |
| 2026-05-04 18:36 | 52.83197 | 9.56464 | 34077 ft | 413 kts | 213° |
| 2026-05-04 18:36 | 52.80697 | 9.54119 | 33812 ft | 412 kts | 213° |
| 2026-05-04 18:36 | 52.78236 | 9.51812 | 33531 ft | 413 kts | 213° |
| 2026-05-04 18:36 | 52.75730 | 9.49465 | 33253 ft | 415 kts | 213° |
| 2026-05-04 18:37 | 52.73254 | 9.47151 | 33009 ft | 416 kts | 213° |
| 2026-05-04 18:37 | 52.70697 | 9.44764 | 32730 ft | 416 kts | 212° |
| 2026-05-04 18:37 | 52.68177 | 9.42415 | 32459 ft | 417 kts | 212° |
| 2026-05-04 18:37 | 52.65645 | 9.40057 | 32197 ft | 418 kts | 212° |
| 2026-05-04 18:38 | 52.63109 | 9.37697 | 31938 ft | 419 kts | 212° |
| 2026-05-04 18:38 | 52.60652 | 9.35137 | 31681 ft | 419 kts | 216° |
| 2026-05-04 18:38 | 52.58238 | 9.32462 | 31424 ft | 419 kts | 216° |
| 2026-05-04 18:38 | 52.55815 | 9.29763 | 31169 ft | 420 kts | 216° |
| 2026-05-04 18:39 | 52.53388 | 9.27067 | 30919 ft | 422 kts | 216° |
| 2026-05-04 18:39 | 52.50960 | 9.24383 | 30664 ft | 421 kts | 216° |
| 2026-05-04 18:39 | 52.48523 | 9.21698 | 30422 ft | 423 kts | 216° |
| 2026-05-04 18:39 | 52.46071 | 9.19002 | 30175 ft | 425 kts | 216° |
| 2026-05-04 18:40 | 52.43643 | 9.16338 | 29922 ft | 426 kts | 216° |
| 2026-05-04 18:40 | 52.41177 | 9.13636 | 29631 ft | 427 kts | 216° |
| 2026-05-04 18:40 | 52.38703 | 9.10930 | 29361 ft | 428 kts | 216° |
| 2026-05-04 18:40 | 52.36225 | 9.08223 | 29068 ft | 430 kts | 216° |
| 2026-05-04 18:41 | 52.33733 | 9.05504 | 28790 ft | 431 kts | 215° |
| 2026-05-04 18:41 | 52.31235 | 9.02781 | 28519 ft | 432 kts | 215° |
| 2026-05-04 18:41 | 52.28732 | 9.00059 | 28238 ft | 433 kts | 215° |
| 2026-05-04 18:41 | 52.26215 | 8.97323 | 27964 ft | 435 kts | 215° |
| 2026-05-04 18:42 | 52.23692 | 8.94585 | 27703 ft | 436 kts | 215° |
| 2026-05-04 18:42 | 52.21163 | 8.91846 | 27450 ft | 437 kts | 215° |
| 2026-05-04 18:42 | 52.18629 | 8.89103 | 27176 ft | 438 kts | 215° |
| 2026-05-04 18:42 | 52.16083 | 8.86352 | 26910 ft | 439 kts | 215° |
| 2026-05-04 18:43 | 52.13533 | 8.83600 | 26658 ft | 441 kts | 215° |
| 2026-05-04 18:43 | 52.10969 | 8.80837 | 26402 ft | 442 kts | 214° |
| 2026-05-04 18:43 | 52.08434 | 8.78109 | 26152 ft | 443 kts | 214° |
| 2026-05-04 18:43 | 52.05859 | 8.75342 | 25903 ft | 444 kts | 214° |
| 2026-05-04 18:44 | 52.03277 | 8.72571 | 25659 ft | 446 kts | 214° |
| 2026-05-04 18:44 | 52.01541 | 8.70659 | 25482 ft | 447 kts | 218° |
| 2026-05-04 18:44 | 51.98629 | 8.65963 | 25071 ft | 449 kts | 233° |
| 2026-05-04 18:44 | 51.97050 | 8.61584 | 24974 ft | 452 kts | 245° |
| 2026-05-04 18:45 | 51.96089 | 8.56725 | 24966 ft | 455 kts | 257° |
| 2026-05-04 18:45 | 51.95653 | 8.51631 | 24967 ft | 457 kts | 262° |
| 2026-05-04 18:45 | 51.95311 | 8.46513 | 24964 ft | 457 kts | 261° |
| 2026-05-04 18:45 | 51.94876 | 8.41412 | 24976 ft | 456 kts | 259° |
| 2026-05-04 18:46 | 51.94344 | 8.36416 | 24975 ft | 456 kts | 257° |
| 2026-05-04 18:46 | 51.93735 | 8.31368 | 24967 ft | 456 kts | 256° |
| 2026-05-04 18:46 | 51.93096 | 8.26364 | 24684 ft | 452 kts | 256° |
| 2026-05-04 18:46 | 51.92449 | 8.21418 | 24063 ft | 449 kts | 256° |
| 2026-05-04 18:47 | 51.91793 | 8.16452 | 22943 ft | 452 kts | 256° |
| 2026-05-04 18:47 | 51.91132 | 8.11469 | 21854 ft | 453 kts | 256° |
| 2026-05-04 18:47 | 51.90479 | 8.06533 | 21167 ft | 443 kts | 256° |
| 2026-05-04 18:47 | 51.89835 | 8.01678 | 20324 ft | 439 kts | 256° |
| 2026-05-04 18:48 | 51.89198 | 7.96882 | 19576 ft | 433 kts | 256° |
| 2026-05-04 18:48 | 51.88568 | 7.92160 | 19074 ft | 425 kts | 256° |
| 2026-05-04 18:48 | 51.87954 | 7.87579 | 18916 ft | 419 kts | 256° |
| 2026-05-04 18:48 | 51.87343 | 7.83027 | 18716 ft | 409 kts | 256° |
| 2026-05-04 18:49 | 51.86742 | 7.78563 | 18119 ft | 405 kts | 256° |
| 2026-05-04 18:49 | 51.86137 | 7.74141 | 17653 ft | 399 kts | 254° |
| 2026-05-04 18:49 | 51.85323 | 7.69833 | 17358 ft | 402 kts | 248° |
| 2026-05-04 18:49 | 51.84193 | 7.65714 | 17012 ft | 400 kts | 242° |
| 2026-05-04 18:50 | 51.82982 | 7.61682 | 16674 ft | 397 kts | 243° |
| 2026-05-04 18:50 | 51.81787 | 7.57665 | 16331 ft | 396 kts | 243° |
| 2026-05-04 18:50 | 51.80599 | 7.53663 | 15989 ft | 395 kts | 243° |
| 2026-05-04 18:50 | 51.79411 | 7.49667 | 15651 ft | 394 kts | 243° |
| 2026-05-04 18:51 | 51.78254 | 7.45780 | 15500 ft | 383 kts | 243° |
| 2026-05-04 18:51 | 51.77131 | 7.42012 | 15289 ft | 363 kts | 243° |
| 2026-05-04 18:51 | 51.76066 | 7.38442 | 15087 ft | 342 kts | 243° |
| 2026-05-04 18:51 | 51.75064 | 7.35090 | 14891 ft | 322 kts | 243° |
| 2026-05-04 18:52 | 51.74117 | 7.31932 | 14734 ft | 304 kts | 243° |
| 2026-05-04 18:52 | 51.73224 | 7.28953 | 14580 ft | 286 kts | 243° |
| 2026-05-04 18:52 | 51.72381 | 7.26147 | 14414 ft | 272 kts | 243° |
| 2026-05-04 18:52 | 51.71563 | 7.23433 | 14123 ft | 268 kts | 243° |
| 2026-05-04 18:53 | 51.70748 | 7.20733 | 13760 ft | 268 kts | 243° |
| 2026-05-04 18:53 | 51.70033 | 7.17956 | 13381 ft | 267 kts | 248° |
| 2026-05-04 18:53 | 51.69379 | 7.15161 | 13006 ft | 266 kts | 247° |
| 2026-05-04 18:53 | 51.68545 | 7.12527 | 12623 ft | 263 kts | 235° |
| 2026-05-04 18:54 | 51.67458 | 7.10167 | 12280 ft | 261 kts | 231° |
| 2026-05-04 18:54 | 51.66362 | 7.07855 | 12052 ft | 261 kts | 231° |
| 2026-05-04 18:54 | 51.65276 | 7.05547 | 11823 ft | 262 kts | 232° |
| 2026-05-04 18:54 | 51.64183 | 7.03215 | 11597 ft | 260 kts | 232° |
| 2026-05-04 18:55 | 51.63094 | 7.00892 | 11380 ft | 259 kts | 232° |
| 2026-05-04 18:55 | 51.60925 | 6.96275 | 10934 ft | 258 kts | 232° |
| 2026-05-04 18:55 | 51.59846 | 6.93983 | 10714 ft | 257 kts | 232° |
| 2026-05-04 18:56 | 51.58838 | 6.91880 | 10507 ft | 256 kts | 226° |
| 2026-05-04 18:56 | 51.57397 | 6.90291 | 10292 ft | 253 kts | 197° |
| 2026-05-04 18:56 | 51.55659 | 6.90042 | 10070 ft | 252 kts | 168° |
| 2026-05-04 18:56 | 51.54084 | 6.91186 | 9870 ft | 252 kts | 143° |
| 2026-05-04 18:57 | 51.52695 | 6.92904 | 9678 ft | 251 kts | 142° |
| 2026-05-04 18:57 | 51.51336 | 6.94639 | 9443 ft | 248 kts | 136° |
| 2026-05-04 18:57 | 51.50441 | 6.96918 | 9251 ft | 250 kts | 107° |
| 2026-05-04 18:57 | 51.50353 | 6.99707 | 9028 ft | 255 kts | 77° |
| 2026-05-04 18:58 | 51.51125 | 7.02249 | 8817 ft | 257 kts | 54° |
| 2026-05-04 18:58 | 51.52210 | 7.04525 | 8591 ft | 256 kts | 52° |
| 2026-05-04 18:58 | 51.53310 | 7.06759 | 8370 ft | 255 kts | 52° |
| 2026-05-04 18:58 | 51.54403 | 7.09007 | 8160 ft | 256 kts | 53° |
| 2026-05-04 18:59 | 51.55483 | 7.11268 | 7931 ft | 254 kts | 53° |
| 2026-05-04 18:59 | 51.56544 | 7.13517 | 7721 ft | 252 kts | 53° |
| 2026-05-04 18:59 | 51.57403 | 7.15954 | 7475 ft | 251 kts | 76° |
| 2026-05-04 18:59 | 51.57463 | 7.18697 | 7175 ft | 245 kts | 106° |
| 2026-05-04 19:00 | 51.56685 | 7.21070 | 6808 ft | 240 kts | 137° |
| 2026-05-04 19:00 | 51.55427 | 7.22808 | 6492 ft | 238 kts | 143° |
| 2026-05-04 19:00 | 51.54031 | 7.24087 | 6167 ft | 233 kts | 168° |
| 2026-05-04 19:00 | 51.52447 | 7.24053 | 5817 ft | 229 kts | 199° |
| 2026-05-04 19:01 | 51.51097 | 7.22751 | 5474 ft | 228 kts | 223° |
| 2026-05-04 19:01 | 51.50041 | 7.20861 | 5175 ft | 227 kts | 232° |
| 2026-05-04 19:01 | 51.49121 | 7.18847 | 5106 ft | 222 kts | 233° |
| 2026-05-04 19:01 | 51.48170 | 7.16811 | 5217 ft | 229 kts | 232° |
| 2026-05-04 19:02 | 51.47240 | 7.14834 | 5301 ft | 213 kts | 232° |
| 2026-05-04 19:02 | 51.46389 | 7.13023 | 5362 ft | 193 kts | 232° |
| 2026-05-04 19:02 | 51.45612 | 7.11369 | 5311 ft | 180 kts | 232° |
| 2026-05-04 19:02 | 51.44881 | 7.09816 | 5110 ft | 175 kts | 232° |
| 2026-05-04 19:03 | 51.44148 | 7.08262 | 4883 ft | 175 kts | 232° |
| 2026-05-04 19:03 | 51.43420 | 7.06716 | 4627 ft | 173 kts | 232° |
| 2026-05-04 19:03 | 51.42692 | 7.05170 | 4390 ft | 175 kts | 232° |
| 2026-05-04 19:03 | 51.41960 | 7.03615 | 4142 ft | 174 kts | 232° |
| 2026-05-04 19:04 | 51.41228 | 7.02062 | 3897 ft | 176 kts | 231° |
| 2026-05-04 19:04 | 51.40494 | 7.00505 | 3690 ft | 174 kts | 231° |
| 2026-05-04 19:04 | 51.39769 | 6.98969 | 3460 ft | 173 kts | 231° |
| 2026-05-04 19:04 | 51.39038 | 6.97417 | 3218 ft | 174 kts | 231° |
| 2026-05-04 19:05 | 51.38310 | 6.95875 | 2977 ft | 175 kts | 231° |
| 2026-05-04 19:05 | 51.37589 | 6.94347 | 2740 ft | 172 kts | 231° |
| 2026-05-04 19:05 | 51.36865 | 6.92815 | 2513 ft | 173 kts | 231° |
| 2026-05-04 19:05 | 51.36143 | 6.91286 | 2278 ft | 173 kts | 231° |
| 2026-05-04 19:06 | 51.35424 | 6.89763 | 2066 ft | 170 kts | 231° |
| 2026-05-04 19:06 | 51.34710 | 6.88253 | 1826 ft | 171 kts | 231° |
| 2026-05-04 19:06 | 51.34010 | 6.86770 | 1587 ft | 158 kts | 231° |
| 2026-05-04 19:06 | 51.33387 | 6.85453 | 1446 ft | 141 kts | 231° |
| 2026-05-04 19:07 | 51.32799 | 6.84212 | 1506 ft | 147 kts | 230° |
| 2026-05-04 19:07 | 51.32168 | 6.82871 | 1228 ft | 146 kts | 231° |
| 2026-05-04 19:07 | 51.31570 | 6.81631 | 951 ft | 136 kts | 231° |
| 2026-05-04 19:07 | 51.31010 | 6.80433 | 650 ft | 130 kts | 231° |
| 2026-05-04 19:08 | 51.30470 | 6.79288 | 437 ft | 135 kts | 231° |
| 2026-05-04 19:08 | 51.29900 | 6.78100 | 253 ft | 133 kts | 231° |
| 2026-05-04 19:08 | 51.29370 | 6.76973 | 142 ft | 119 kts | 230° |
| 2026-05-04 19:08 | 51.28954 | 6.76105 | 136 ft | 67 kts | 232° |
| 2026-05-04 19:09 | 51.28722 | 6.75730 | 133 ft | 36 kts | 205° |
| 2026-05-04 19:09 | 51.28595 | 6.75689 | 136 ft | 14 kts | 177° |
| 2026-05-04 19:09 | 51.28536 | 6.75708 | 136 ft | 0 kts | 158° |
| 2026-05-04 19:10 | 51.28506 | 6.75730 | 136 ft | 10 kts | 155° |
| 2026-05-04 19:10 | 51.28464 | 6.75774 | 136 ft | 0 kts | 143° |
| 2026-05-04 19:10 | 51.28458 | 6.75780 | 136 ft | 0 kts | 143° |
| 2026-05-04 19:13 | 51.28454 | 6.75786 | 136 ft | 1 kts | 142° |
| 2026-05-04 19:13 | 51.28437 | 6.75806 | 136 ft | 4 kts | 142° |
| 2026-05-04 19:14 | 51.28408 | 6.75842 | 135 ft | 2 kts | 142° |
| 2026-05-04 19:14 | 51.28399 | 6.75854 | 135 ft | 0 kts | 142° |
| 2026-05-04 19:15 | 51.28398 | 6.75855 | 135 ft | 2 kts | 142° |
| 2026-05-04 19:15 | 51.28353 | 6.75910 | 133 ft | 14 kts | 142° |
| 2026-05-04 19:16 | 51.28263 | 6.76014 | 135 ft | 16 kts | 147° |
| 2026-05-04 19:16 | 51.28219 | 6.76059 | 136 ft | 0 kts | 147° |
| 2026-05-04 19:16 | 51.28216 | 6.76062 | 136 ft | 3 kts | 146° |
| 2026-05-04 19:17 | 51.28196 | 6.76155 | 136 ft | 13 kts | 71° |
| 2026-05-04 19:17 | 51.28168 | 6.76274 | 137 ft | 13 kts | 137° |
| 2026-05-04 19:17 | 51.28127 | 6.76363 | 137 ft | 8 kts | 124° |
| 2026-05-04 19:17 | 51.28092 | 6.76417 | 137 ft | 6 kts | 144° |
| 2026-05-04 19:18 | 51.28085 | 6.76424 | 137 ft | 3 kts | 144° |
| 2026-05-04 19:18 | 51.28054 | 6.76453 | 137 ft | 3 kts | 176° |
| 2026-05-04 19:18 | 51.28043 | 6.76443 | 137 ft | 4 kts | 207° |
| 2026-05-04 19:18 | 51.28022 | 6.76425 | 137 ft | 2 kts | 207° |
| 2026-05-04 19:19 | 51.28012 | 6.76418 | 137 ft | 0 kts | 208° |